createdAt,value
2022-12-04T00:01:05.347Z,92
2022-12-04T00:02:12.428Z,92
2022-12-04T00:03:20.108Z,92
2022-12-04T00:04:26.733Z,92
2022-12-04T00:05:33.737Z,92
2022-12-04T00:06:40.307Z,92
2022-12-04T00:07:47.513Z,92
2022-12-04T00:08:54.695Z,92
2022-12-04T00:10:01.632Z,92
2022-12-04T00:12:15.337Z,92
2022-12-04T00:13:22.471Z,92
2022-12-04T00:15:36.705Z,92
2022-12-04T00:16:43.870Z,92
2022-12-04T00:17:50.332Z,92
2022-12-04T00:18:57.403Z,92
2022-12-04T00:20:04.580Z,92
2022-12-04T00:21:11.657Z,92
2022-12-04T00:22:18.740Z,92
2022-12-04T00:23:25.377Z,92
2022-12-04T00:24:32.507Z,92
2022-12-04T00:25:42.569Z,92
2022-12-04T00:26:46.650Z,92
2022-12-04T00:27:53.780Z,92
2022-12-04T00:29:00.381Z,92
2022-12-04T00:30:07.445Z,92
2022-12-04T00:31:14.614Z,92
2022-12-04T00:32:21.681Z,92
2022-12-04T00:33:28.750Z,92
2022-12-04T00:34:35.377Z,92
2022-12-04T00:35:42.831Z,92
2022-12-04T00:36:49.658Z,92
2022-12-04T00:37:56.677Z,92
2022-12-04T00:39:03.796Z,92
2022-12-04T00:40:10.449Z,92
2022-12-04T00:41:17.458Z,92
2022-12-04T00:42:24.587Z,92
2022-12-04T00:43:31.689Z,92
2022-12-04T00:44:38.230Z,92
2022-12-04T00:45:45.426Z,92
2022-12-04T00:46:52.552Z,92
2022-12-04T00:47:59.576Z,92
2022-12-04T00:49:06.683Z,92
2022-12-04T00:50:13.236Z,92
2022-12-04T00:51:20.387Z,92
2022-12-04T00:53:34.607Z,91
2022-12-04T00:55:48.596Z,92
2022-12-04T00:56:55.470Z,92
2022-12-04T00:58:02.494Z,92
2022-12-04T00:59:09.584Z,92
2022-12-04T01:00:16.681Z,92
2022-12-04T01:01:23.510Z,91
2022-12-04T01:02:30.496Z,91
2022-12-04T01:03:37.469Z,91
2022-12-04T01:04:44.602Z,91
2022-12-04T01:05:51.702Z,91
2022-12-04T01:07:04.654Z,91
2022-12-04T01:08:05.475Z,91
2022-12-04T01:09:12.521Z,91
2022-12-04T01:10:19.579Z,91
2022-12-04T01:11:26.749Z,91
2022-12-04T01:12:33.381Z,91
2022-12-04T01:13:40.415Z,91
2022-12-04T01:14:47.534Z,91
2022-12-04T01:15:54.751Z,91
2022-12-04T01:17:01.828Z,91
2022-12-04T01:19:15.454Z,91
2022-12-04T01:20:22.525Z,91
2022-12-04T01:21:29.662Z,91
2022-12-04T01:22:36.717Z,91
2022-12-04T01:23:43.338Z,91
2022-12-04T01:24:50.436Z,91
2022-12-04T01:25:57.492Z,91
2022-12-04T01:27:04.704Z,91
2022-12-04T01:28:11.779Z,91
2022-12-04T01:29:18.311Z,91
2022-12-04T01:30:25.478Z,91
2022-12-04T01:31:33.085Z,91
2022-12-04T01:32:39.638Z,91
2022-12-04T01:34:53.378Z,91
2022-12-04T01:36:00.419Z,91
2022-12-04T01:37:07.577Z,91
2022-12-04T01:38:14.643Z,91
2022-12-04T01:39:21.756Z,91
2022-12-04T01:40:28.333Z,91
2022-12-04T01:41:35.482Z,91
2022-12-04T01:42:42.562Z,91
2022-12-04T01:43:49.636Z,91
2022-12-04T01:44:56.726Z,91
2022-12-04T01:46:03.397Z,91
2022-12-04T01:47:10.547Z,91
2022-12-04T01:48:17.537Z,91
2022-12-04T01:49:24.637Z,91
2022-12-04T01:50:31.769Z,91
2022-12-04T01:51:38.428Z,91
2022-12-04T01:52:45.466Z,91
2022-12-04T01:53:52.584Z,91
2022-12-04T01:54:59.648Z,91
2022-12-04T01:56:06.740Z,91
2022-12-04T01:57:13.365Z,91
2022-12-04T01:58:20.480Z,91
2022-12-04T01:59:27.578Z,91
2022-12-04T02:00:34.648Z,91
2022-12-04T02:01:42.002Z,91
2022-12-04T02:02:48.464Z,90
2022-12-04T02:03:55.498Z,90
2022-12-04T02:05:02.580Z,90
2022-12-04T02:06:09.660Z,90
2022-12-04T02:07:16.772Z,90
2022-12-04T02:08:23.384Z,90
2022-12-04T02:09:30.491Z,90
2022-12-04T02:10:37.571Z,90
2022-12-04T02:11:44.837Z,90
2022-12-04T02:12:51.781Z,90
2022-12-04T02:13:58.347Z,90
2022-12-04T02:16:12.700Z,90
2022-12-04T02:17:19.672Z,90
2022-12-04T02:18:26.767Z,90
2022-12-04T02:19:33.397Z,90
2022-12-04T02:20:40.499Z,90
2022-12-04T02:24:01.319Z,90
2022-12-04T02:25:08.378Z,90
2022-12-04T02:26:15.553Z,90
2022-12-04T02:27:22.638Z,90
2022-12-04T02:28:29.690Z,90
2022-12-04T02:29:36.322Z,90
2022-12-04T02:30:43.473Z,90
2022-12-04T02:31:50.536Z,89
2022-12-04T02:32:57.583Z,90
2022-12-04T02:34:04.736Z,89
2022-12-04T02:35:11.308Z,89
2022-12-04T02:36:18.455Z,89
2022-12-04T02:37:25.505Z,89
2022-12-04T02:38:32.655Z,89
2022-12-04T02:39:39.713Z,89
2022-12-04T02:40:46.346Z,89
2022-12-04T02:41:53.448Z,89
2022-12-04T02:43:00.516Z,89
2022-12-04T02:44:07.627Z,89
2022-12-04T02:45:14.758Z,89
2022-12-04T02:46:21.483Z,89
2022-12-04T02:47:28.394Z,89
2022-12-04T02:48:35.576Z,89
2022-12-04T02:49:42.647Z,89
2022-12-04T02:50:49.736Z,89
2022-12-04T02:51:56.319Z,89
2022-12-04T02:53:03.442Z,89
2022-12-04T02:54:10.540Z,89
2022-12-04T02:55:17.639Z,89
2022-12-04T02:57:31.413Z,90
2022-12-04T02:58:38.417Z,90
2022-12-04T02:59:46.058Z,89
2022-12-04T03:00:52.720Z,90
2022-12-04T03:01:59.843Z,89
2022-12-04T03:03:06.326Z,89
2022-12-04T03:04:13.481Z,89
2022-12-04T03:05:20.561Z,89
2022-12-04T03:06:27.677Z,89
2022-12-04T03:07:34.856Z,90
2022-12-04T03:08:41.363Z,89
2022-12-04T03:09:48.449Z,89
2022-12-04T03:10:55.591Z,89
2022-12-04T03:12:02.752Z,89
2022-12-04T03:13:09.787Z,89
2022-12-04T03:14:16.329Z,89
2022-12-04T03:15:23.517Z,89
2022-12-04T03:16:30.646Z,89
2022-12-04T03:17:37.658Z,89
2022-12-04T03:18:44.789Z,89
2022-12-04T03:19:51.384Z,89
2022-12-04T03:20:58.468Z,89
2022-12-04T03:22:05.643Z,89
2022-12-04T03:23:12.710Z,89
2022-12-04T03:24:19.761Z,89
2022-12-04T03:26:33.490Z,89
2022-12-04T03:27:40.598Z,89
2022-12-04T03:28:47.700Z,89
2022-12-04T03:29:55.207Z,89
2022-12-04T03:31:01.527Z,89
2022-12-04T03:32:08.540Z,89
2022-12-04T03:33:15.594Z,89
2022-12-04T03:34:22.724Z,89
2022-12-04T03:35:29.784Z,89
2022-12-04T03:36:36.565Z,89
2022-12-04T03:38:50.659Z,89
2022-12-04T03:39:57.890Z,89
2022-12-04T03:41:04.826Z,89
2022-12-04T03:42:11.408Z,89
2022-12-04T03:43:18.488Z,89
2022-12-04T03:44:25.653Z,89
2022-12-04T03:45:32.745Z,89
2022-12-04T03:46:39.940Z,89
2022-12-04T03:47:46.436Z,89
2022-12-04T03:48:53.528Z,89
2022-12-04T03:50:00.597Z,89
2022-12-04T03:52:14.837Z,89
2022-12-04T03:53:21.410Z,89
2022-12-04T03:54:28.489Z,89
2022-12-04T03:55:35.635Z,89
2022-12-04T03:56:42.787Z,89
2022-12-04T03:57:49.799Z,89
2022-12-04T03:58:56.439Z,89
2022-12-04T04:00:04.046Z,89
2022-12-04T04:01:10.703Z,89
2022-12-04T04:02:17.892Z,89
2022-12-04T04:03:24.353Z,89
2022-12-04T04:04:31.442Z,89
2022-12-04T04:05:38.499Z,89
2022-12-04T04:06:45.669Z,89
2022-12-04T04:07:52.833Z,89
2022-12-04T04:08:59.317Z,89
2022-12-04T04:10:06.421Z,90
2022-12-04T04:11:13.578Z,89
2022-12-04T04:12:20.720Z,90
2022-12-04T04:13:27.733Z,90
2022-12-04T04:14:34.353Z,90
2022-12-04T04:15:43.069Z,90
2022-12-04T04:16:48.515Z,90
2022-12-04T04:17:55.675Z,90
2022-12-04T04:20:09.336Z,90
2022-12-04T04:21:16.464Z,90
2022-12-04T04:22:23.647Z,90
2022-12-04T04:23:30.687Z,90
2022-12-04T04:24:37.743Z,90
2022-12-04T04:25:44.347Z,90
2022-12-04T04:26:51.538Z,90
2022-12-04T04:27:59.074Z,90
2022-12-04T04:30:12.767Z,90
2022-12-04T04:31:19.406Z,90
2022-12-04T04:32:26.546Z,90
2022-12-04T04:33:33.581Z,90
2022-12-04T04:34:40.701Z,90
2022-12-04T04:35:47.894Z,90
2022-12-04T04:36:54.456Z,90
2022-12-04T04:38:01.496Z,90
2022-12-04T04:39:08.565Z,90
2022-12-04T04:40:15.697Z,90
2022-12-04T04:41:22.771Z,90
2022-12-04T04:42:29.355Z,90
2022-12-04T04:43:36.518Z,90
2022-12-04T04:44:43.608Z,90
2022-12-04T04:45:50.709Z,90
2022-12-04T04:46:57.958Z,90
2022-12-04T04:48:04.406Z,90
2022-12-04T04:49:11.492Z,90
2022-12-04T04:50:18.608Z,90
2022-12-04T04:51:25.763Z,90
2022-12-04T04:52:32.808Z,90
2022-12-04T04:53:39.386Z,90
2022-12-04T04:54:46.520Z,90
2022-12-04T04:55:53.626Z,90
2022-12-04T04:57:00.687Z,90
2022-12-04T04:58:07.807Z,90
2022-12-04T04:59:14.425Z,90
2022-12-04T05:01:28.769Z,90
2022-12-04T05:02:35.785Z,90
2022-12-04T05:03:42.952Z,90
2022-12-04T05:04:49.382Z,90
2022-12-04T05:05:56.548Z,90
2022-12-04T05:07:03.645Z,90
2022-12-04T05:08:10.809Z,90
2022-12-04T05:09:17.811Z,90
2022-12-04T05:10:24.434Z,90
2022-12-04T05:11:31.598Z,90
2022-12-04T05:12:38.711Z,90
2022-12-04T05:13:45.750Z,90
2022-12-04T05:14:52.885Z,90
2022-12-04T05:15:59.523Z,91
2022-12-04T05:17:10.763Z,91
2022-12-04T05:18:13.670Z,91
2022-12-04T05:20:27.993Z,91
2022-12-04T05:21:34.425Z,91
2022-12-04T05:22:41.572Z,90
2022-12-04T05:23:48.628Z,91
2022-12-04T05:24:55.750Z,91
2022-12-04T05:26:02.850Z,91
2022-12-04T05:27:09.465Z,91
2022-12-04T05:28:16.563Z,91
2022-12-04T05:29:23.674Z,91
2022-12-04T05:30:30.748Z,91
2022-12-04T05:31:37.911Z,91
2022-12-04T05:33:51.566Z,91
2022-12-04T05:34:58.653Z,91
2022-12-04T05:36:05.823Z,91
2022-12-04T05:37:12.946Z,91
2022-12-04T05:38:19.459Z,91
2022-12-04T05:39:26.548Z,91
2022-12-04T05:40:33.669Z,91
2022-12-04T05:42:47.926Z,91
2022-12-04T05:43:54.484Z,91
2022-12-04T05:45:01.573Z,91
2022-12-04T05:46:08.859Z,91
2022-12-04T05:47:15.772Z,91
2022-12-04T05:48:22.899Z,91
2022-12-04T05:49:29.555Z,90
2022-12-04T05:50:36.585Z,90
2022-12-04T05:51:43.762Z,90
2022-12-04T05:52:50.796Z,90
2022-12-04T05:53:57.356Z,90
2022-12-04T05:55:04.487Z,90
2022-12-04T05:56:12.099Z,90
2022-12-04T05:57:18.653Z,90
2022-12-04T05:58:25.808Z,90
2022-12-04T05:59:32.407Z,90
2022-12-04T06:00:39.490Z,90
2022-12-04T06:01:46.711Z,90
2022-12-04T06:02:53.769Z,90
2022-12-04T06:04:00.772Z,90
2022-12-04T06:05:07.380Z,90
2022-12-04T06:06:19.492Z,90
2022-12-04T06:07:21.678Z,89
2022-12-04T06:08:28.692Z,89
2022-12-04T06:09:35.821Z,89
2022-12-04T06:10:42.415Z,89
2022-12-04T06:11:49.489Z,89
2022-12-04T06:12:56.592Z,89
2022-12-04T06:14:03.694Z,89
2022-12-04T06:15:10.818Z,89
2022-12-04T06:16:17.477Z,89
2022-12-04T06:17:24.563Z,89
2022-12-04T06:18:31.642Z,89
2022-12-04T06:19:38.697Z,89
2022-12-04T06:20:45.897Z,89
2022-12-04T06:21:52.435Z,89
2022-12-04T06:24:06.612Z,89
2022-12-04T06:25:13.726Z,89
2022-12-04T06:26:20.828Z,89
2022-12-04T06:27:28.489Z,89
2022-12-04T06:28:34.544Z,89
2022-12-04T06:29:41.626Z,88
2022-12-04T06:30:48.699Z,88
2022-12-04T06:31:55.961Z,88
2022-12-04T06:33:02.444Z,89
2022-12-04T06:34:09.532Z,89
2022-12-04T06:35:17.004Z,89
2022-12-04T06:37:30.859Z,88
2022-12-04T06:38:37.419Z,88
2022-12-04T06:39:44.538Z,88
2022-12-04T06:40:51.640Z,88
2022-12-04T06:41:58.799Z,88
2022-12-04T06:43:05.846Z,88
2022-12-04T06:44:12.479Z,88
2022-12-04T06:45:19.521Z,88
2022-12-04T06:46:26.718Z,88
2022-12-04T06:48:40.926Z,88
2022-12-04T06:49:47.424Z,89
2022-12-04T06:50:54.548Z,89
2022-12-04T06:52:01.676Z,89
2022-12-04T06:53:08.865Z,89
2022-12-04T06:54:15.877Z,88
2022-12-04T06:55:22.491Z,88
2022-12-04T06:56:29.564Z,88
2022-12-04T06:57:36.737Z,88
2022-12-04T06:58:43.780Z,88
2022-12-04T06:59:50.886Z,88
2022-12-04T07:00:57.500Z,88
2022-12-04T07:02:04.680Z,88
2022-12-04T07:03:11.701Z,88
2022-12-04T07:05:25.884Z,89
2022-12-04T07:06:32.480Z,88
2022-12-04T07:07:39.705Z,88
2022-12-04T07:08:46.652Z,88
2022-12-04T07:09:54.110Z,88
2022-12-04T07:11:00.866Z,88
2022-12-04T07:12:07.560Z,88
2022-12-04T07:13:14.560Z,88
2022-12-04T07:14:21.686Z,88
2022-12-04T07:15:28.764Z,88
2022-12-04T07:16:40.738Z,88
2022-12-04T07:17:42.491Z,88
2022-12-04T07:18:49.568Z,88
2022-12-04T07:19:56.937Z,88
2022-12-04T07:21:03.791Z,88
2022-12-04T07:22:10.972Z,88
2022-12-04T07:23:17.468Z,88
2022-12-04T07:24:25.101Z,88
2022-12-04T07:25:31.707Z,88
2022-12-04T07:26:38.822Z,88
2022-12-04T07:27:45.368Z,88
2022-12-04T07:28:52.509Z,89
2022-12-04T07:29:59.586Z,89
2022-12-04T07:31:06.676Z,88
2022-12-04T07:32:13.889Z,89
2022-12-04T07:33:20.937Z,89
2022-12-04T07:34:27.499Z,89
2022-12-04T07:35:34.620Z,89
2022-12-04T07:36:41.773Z,89
2022-12-04T07:37:48.808Z,89
2022-12-04T07:38:55.379Z,89
2022-12-04T07:41:09.598Z,89
2022-12-04T07:42:21.067Z,89
2022-12-04T07:43:23.829Z,89
2022-12-04T07:44:30.462Z,89
2022-12-04T07:46:44.675Z,90
2022-12-04T07:47:51.741Z,90
2022-12-04T07:48:58.839Z,90
2022-12-04T07:50:05.480Z,90
2022-12-04T07:51:12.541Z,90
2022-12-04T07:52:19.728Z,90
2022-12-04T07:53:26.727Z,90
2022-12-04T07:54:33.844Z,90
2022-12-04T07:55:42.961Z,90
2022-12-04T07:56:47.504Z,90
2022-12-04T07:57:54.664Z,90
2022-12-04T07:59:01.750Z,90
2022-12-04T08:00:08.838Z,90
2022-12-04T08:01:15.703Z,90
2022-12-04T08:02:22.587Z,90
2022-12-04T08:03:29.641Z,90
2022-12-04T08:04:36.845Z,90
2022-12-04T08:05:43.884Z,90
2022-12-04T08:06:50.526Z,90
2022-12-04T08:07:57.659Z,90
2022-12-04T08:09:09.458Z,90
2022-12-04T08:10:11.761Z,90
2022-12-04T08:11:18.845Z,90
2022-12-04T08:12:25.479Z,90
2022-12-04T08:13:32.578Z,90
2022-12-04T08:14:39.638Z,90
2022-12-04T08:15:46.803Z,90
2022-12-04T08:16:54.034Z,90
2022-12-04T08:18:00.460Z,90
2022-12-04T08:19:07.541Z,90
2022-12-04T08:20:14.696Z,90
2022-12-04T08:21:21.780Z,90
2022-12-04T08:22:28.943Z,90
2022-12-04T08:23:35.481Z,90
2022-12-04T08:24:42.589Z,90
2022-12-04T08:25:49.665Z,90
2022-12-04T08:28:03.913Z,90
2022-12-04T08:29:10.481Z,90
2022-12-04T08:30:17.548Z,90
2022-12-04T08:31:24.798Z,90
2022-12-04T08:32:31.844Z,90
2022-12-04T08:33:38.884Z,90
2022-12-04T08:34:47.077Z,90
2022-12-04T08:35:52.632Z,90
2022-12-04T08:36:59.693Z,91
2022-12-04T08:38:06.767Z,91
2022-12-04T08:39:13.918Z,91
2022-12-04T08:40:20.526Z,91
2022-12-04T08:41:27.577Z,91
2022-12-04T08:42:34.772Z,91
2022-12-04T08:44:48.913Z,90
2022-12-04T08:45:55.591Z,90
2022-12-04T08:47:02.657Z,90
2022-12-04T08:48:09.699Z,90
2022-12-04T08:49:16.853Z,90
2022-12-04T08:50:23.927Z,90
2022-12-04T08:51:30.529Z,90
2022-12-04T08:52:38.138Z,90
2022-12-04T08:53:44.771Z,90
2022-12-04T08:54:51.862Z,90
2022-12-04T08:55:58.928Z,90
2022-12-04T08:57:05.581Z,90
2022-12-04T08:58:12.631Z,90
2022-12-04T08:59:19.727Z,90
2022-12-04T09:00:26.810Z,90
2022-12-04T09:01:34.042Z,90
2022-12-04T09:02:40.572Z,90
2022-12-04T09:03:47.620Z,90
2022-12-04T09:04:54.810Z,90
2022-12-04T09:06:01.883Z,90
2022-12-04T09:07:08.965Z,90
2022-12-04T09:09:22.675Z,90
2022-12-04T09:10:29.758Z,90
2022-12-04T09:11:36.841Z,90
2022-12-04T09:12:43.983Z,90
2022-12-04T09:13:50.564Z,90
2022-12-04T09:14:57.615Z,90
2022-12-04T09:16:04.898Z,90
2022-12-04T09:17:11.910Z,90
2022-12-04T09:18:18.927Z,90
2022-12-04T09:19:25.553Z,91
2022-12-04T09:20:32.687Z,91
2022-12-04T09:21:39.737Z,91
2022-12-04T09:23:03.344Z,91
2022-12-04T09:23:53.967Z,90
2022-12-04T09:25:00.527Z,91
2022-12-04T09:26:08.713Z,91
2022-12-04T09:27:15.170Z,91
2022-12-04T09:28:21.865Z,90
2022-12-04T09:29:28.967Z,90
2022-12-04T09:30:35.583Z,90
2022-12-04T09:31:42.702Z,90
2022-12-04T09:32:49.815Z,90
2022-12-04T09:33:56.870Z,90
2022-12-04T09:35:03.515Z,90
2022-12-04T09:36:10.595Z,90
2022-12-04T09:37:17.664Z,90
2022-12-04T09:38:24.809Z,90
2022-12-04T09:39:31.896Z,90
2022-12-04T09:40:38.504Z,90
2022-12-04T09:41:45.638Z,90
2022-12-04T09:42:52.691Z,90
2022-12-04T09:43:59.763Z,90
2022-12-04T09:45:06.897Z,90
2022-12-04T09:46:13.584Z,90
2022-12-04T09:48:27.748Z,90
2022-12-04T09:50:41.907Z,90
2022-12-04T09:51:48.486Z,90
2022-12-04T09:52:55.591Z,90
2022-12-04T09:54:02.699Z,90
2022-12-04T09:55:09.778Z,90
2022-12-04T09:56:16.889Z,90
2022-12-04T09:57:23.562Z,90
2022-12-04T09:58:30.618Z,90
2022-12-04T09:59:37.694Z,90
2022-12-04T10:00:44.816Z,90
2022-12-04T10:01:51.943Z,90
2022-12-04T10:02:58.639Z,90
2022-12-04T10:04:06.324Z,90
2022-12-04T10:05:12.721Z,90
2022-12-04T10:06:20.368Z,90
2022-12-04T10:07:27.156Z,90
2022-12-04T10:08:33.517Z,90
2022-12-04T10:09:40.622Z,90
2022-12-04T10:10:47.721Z,91
2022-12-04T10:11:54.893Z,91
2022-12-04T10:13:01.953Z,91
2022-12-04T10:14:08.535Z,91
2022-12-04T10:15:15.636Z,91
2022-12-04T10:16:22.877Z,91
2022-12-04T10:17:32.982Z,91
2022-12-04T10:18:36.916Z,91
2022-12-04T10:19:43.538Z,91
2022-12-04T10:21:57.789Z,91
2022-12-04T10:23:08.103Z,90
2022-12-04T10:24:11.973Z,90
2022-12-04T10:25:18.548Z,91
2022-12-04T10:26:25.659Z,91
2022-12-04T10:27:32.783Z,91
2022-12-04T10:28:39.836Z,91
2022-12-04T10:29:46.947Z,91
2022-12-04T10:32:00.646Z,91
2022-12-04T10:33:07.751Z,91
2022-12-04T10:34:14.871Z,91
2022-12-04T10:35:21.982Z,91
2022-12-04T10:36:28.528Z,91
2022-12-04T10:37:35.707Z,91
2022-12-04T10:38:42.787Z,91
2022-12-04T10:39:49.840Z,91
2022-12-04T10:40:56.960Z,91
2022-12-04T10:42:03.627Z,91
2022-12-04T10:43:10.674Z,91
2022-12-04T10:44:17.740Z,91
2022-12-04T10:45:24.886Z,91
2022-12-04T10:46:32.047Z,91
2022-12-04T10:47:38.546Z,91
2022-12-04T10:48:45.711Z,91
2022-12-04T10:49:53.057Z,91
2022-12-04T10:55:27.829Z,91
2022-12-04T10:57:42.086Z,91
2022-12-04T10:58:48.557Z,91
2022-12-04T10:59:56.103Z,92
2022-12-04T11:01:02.797Z,92
2022-12-04T11:02:10.093Z,92
2022-12-04T11:03:17.090Z,92
2022-12-04T11:04:23.608Z,92
2022-12-04T11:05:30.676Z,92
2022-12-04T11:06:37.781Z,92
2022-12-04T11:07:45.082Z,92
2022-12-04T11:08:52.003Z,92
2022-12-04T11:09:59.627Z,92
2022-12-04T11:11:05.692Z,92
2022-12-04T11:13:19.892Z,92
2022-12-04T11:14:27.026Z,92
2022-12-04T11:15:33.619Z,92
2022-12-04T11:16:40.771Z,92
2022-12-04T11:17:47.867Z,92
2022-12-04T11:18:54.960Z,92
2022-12-04T11:20:02.042Z,92
2022-12-04T11:21:08.571Z,92
2022-12-04T11:22:15.737Z,92
2022-12-04T11:23:22.819Z,92
2022-12-04T11:24:29.903Z,92
2022-12-04T11:25:36.518Z,92
2022-12-04T11:26:43.611Z,92
2022-12-04T11:27:50.747Z,92
2022-12-04T11:28:57.798Z,92
2022-12-04T11:30:04.422Z,92
2022-12-04T11:31:12.162Z,92
2022-12-04T11:32:18.675Z,92
2022-12-04T11:33:25.730Z,92
2022-12-04T11:34:32.855Z,93
2022-12-04T11:35:43.045Z,92
2022-12-04T11:36:46.527Z,92
2022-12-04T11:37:53.839Z,92
2022-12-04T11:39:00.735Z,92
2022-12-04T11:40:07.807Z,93
2022-12-04T11:41:14.940Z,92
2022-12-04T11:42:21.529Z,92
2022-12-04T11:43:28.600Z,92
2022-12-04T11:44:35.754Z,92
2022-12-04T11:45:43.067Z,92
2022-12-04T11:46:49.965Z,92
2022-12-04T11:47:56.604Z,92
2022-12-04T11:50:10.807Z,93
2022-12-04T11:51:17.836Z,93
2022-12-04T11:52:24.959Z,93
2022-12-04T11:55:45.775Z,93
2022-12-04T11:56:52.889Z,93
2022-12-04T11:58:00.028Z,93
2022-12-04T11:59:06.542Z,93
2022-12-04T12:00:13.697Z,93
2022-12-04T12:01:20.773Z,93
2022-12-04T12:02:28.029Z,93
2022-12-04T12:03:35.120Z,93
2022-12-04T12:04:41.605Z,93
2022-12-04T12:05:48.651Z,93
2022-12-04T12:06:55.854Z,93
2022-12-04T12:08:03.351Z,93
2022-12-04T12:09:09.976Z,93
2022-12-04T12:10:16.736Z,93
2022-12-04T12:11:23.715Z,93
2022-12-04T12:12:30.902Z,93
2022-12-04T12:13:38.405Z,93
2022-12-04T12:14:45.007Z,93
2022-12-04T12:15:51.584Z,93
2022-12-04T12:16:58.691Z,93
2022-12-04T12:18:05.783Z,93
2022-12-04T12:19:12.914Z,93
2022-12-04T12:20:19.966Z,93
2022-12-04T12:21:26.645Z,93
2022-12-04T12:22:33.760Z,93
2022-12-04T12:23:40.831Z,93
2022-12-04T12:24:51.330Z,94
2022-12-04T12:25:55.035Z,94
2022-12-04T12:27:01.625Z,96
2022-12-04T12:28:08.682Z,96
2022-12-04T12:29:15.808Z,98
2022-12-04T12:30:22.940Z,98
2022-12-04T12:31:30.083Z,98
2022-12-04T12:32:36.671Z,98
2022-12-04T12:33:43.708Z,98
2022-12-04T12:35:57.905Z,98
2022-12-04T12:37:05.057Z,98
2022-12-04T12:38:11.653Z,98
2022-12-04T12:39:18.710Z,98
2022-12-04T12:40:25.837Z,98
2022-12-04T12:41:32.933Z,98
2022-12-04T12:42:40.090Z,98
2022-12-04T12:43:46.648Z,98
2022-12-04T12:44:53.754Z,98
2022-12-04T12:46:00.893Z,98
2022-12-04T12:47:07.993Z,98
2022-12-04T12:48:15.138Z,98
2022-12-04T12:49:21.637Z,98
2022-12-04T12:50:28.720Z,98
2022-12-04T12:51:35.835Z,98
2022-12-04T12:52:42.433Z,98
2022-12-04T12:53:50.044Z,98
2022-12-04T12:54:56.643Z,98
2022-12-04T12:56:03.750Z,98
2022-12-04T12:57:10.891Z,98
2022-12-04T12:59:25.155Z,98
2022-12-04T13:00:31.649Z,98
2022-12-04T13:01:38.801Z,98
2022-12-04T13:02:45.994Z,98
2022-12-04T13:03:52.952Z,98
2022-12-04T13:05:00.030Z,98
2022-12-04T13:06:06.638Z,98
2022-12-04T13:07:13.772Z,98
2022-12-04T13:08:21.045Z,98
2022-12-04T13:09:27.965Z,98
2022-12-04T13:10:35.076Z,98
2022-12-04T13:11:41.666Z,98
2022-12-04T13:12:48.796Z,98
2022-12-04T13:13:55.873Z,98
2022-12-04T13:15:02.997Z,98
2022-12-04T13:16:10.169Z,98
2022-12-04T13:18:23.801Z,98
2022-12-04T13:19:30.864Z,98
2022-12-04T13:20:37.970Z,98
2022-12-04T13:21:44.600Z,98
2022-12-04T13:22:51.766Z,98
2022-12-04T13:23:58.756Z,98
2022-12-04T13:25:05.865Z,98
2022-12-04T13:26:13.010Z,98
2022-12-04T13:27:19.559Z,98
2022-12-04T13:28:26.690Z,98
2022-12-04T13:29:33.790Z,98
2022-12-04T13:30:40.918Z,98
2022-12-04T13:31:48.026Z,98
2022-12-04T13:32:54.656Z,98
2022-12-04T13:34:01.709Z,98
2022-12-04T13:35:08.770Z,98
2022-12-04T13:36:16.103Z,98
2022-12-04T13:37:23.085Z,99
2022-12-04T13:38:30.126Z,99
2022-12-04T13:39:36.685Z,99
2022-12-04T13:40:43.815Z,99
2022-12-04T13:41:50.912Z,98
2022-12-04T13:42:57.989Z,98
2022-12-04T13:44:07.336Z,98
2022-12-04T13:45:11.716Z,98
2022-12-04T13:46:18.850Z,98
2022-12-04T13:47:26.049Z,98
2022-12-04T13:48:33.040Z,98
2022-12-04T13:49:39.582Z,98
2022-12-04T13:50:46.676Z,99
2022-12-04T13:51:53.828Z,98
2022-12-04T13:53:00.917Z,98
2022-12-04T13:54:08.027Z,98
2022-12-04T13:55:14.644Z,98
2022-12-04T13:56:21.736Z,99
2022-12-04T13:57:28.872Z,99
2022-12-04T13:58:35.926Z,98
2022-12-04T13:59:43.068Z,98
2022-12-04T14:00:49.649Z,99
2022-12-04T14:03:04.048Z,98
2022-12-04T14:04:10.975Z,98
2022-12-04T14:05:18.007Z,98
2022-12-04T14:06:24.647Z,98
2022-12-04T14:07:31.789Z,98
2022-12-04T14:08:38.818Z,99
2022-12-04T14:09:45.936Z,98
2022-12-04T14:10:53.053Z,99
2022-12-04T14:11:59.640Z,99
2022-12-04T14:13:06.817Z,98
2022-12-04T14:14:13.878Z,99
2022-12-04T14:15:20.456Z,99
2022-12-04T14:16:28.101Z,98
2022-12-04T14:17:34.670Z,99
2022-12-04T14:18:41.747Z,98
2022-12-04T14:19:48.872Z,98
2022-12-04T14:20:56.472Z,98
2022-12-04T14:22:03.062Z,98
2022-12-04T14:23:09.720Z,98
2022-12-04T14:24:16.779Z,99
2022-12-04T14:25:23.859Z,99
2022-12-04T14:26:55.918Z,99
2022-12-04T14:27:38.125Z,99
2022-12-04T14:28:44.666Z,99
2022-12-04T14:29:51.768Z,98
2022-12-04T14:30:58.862Z,99
2022-12-04T14:32:05.993Z,98
2022-12-04T14:33:13.195Z,98
2022-12-04T14:34:19.652Z,99
2022-12-04T14:35:26.747Z,99
2022-12-04T14:36:33.887Z,98
2022-12-04T14:37:41.068Z,98
2022-12-04T14:38:47.528Z,98
2022-12-04T14:39:54.699Z,99
2022-12-04T14:41:01.851Z,99
2022-12-04T14:42:08.874Z,99
2022-12-04T14:43:15.992Z,99
2022-12-04T14:44:23.107Z,99
2022-12-04T14:46:36.939Z,99
2022-12-04T14:47:43.974Z,99
2022-12-04T14:48:51.054Z,99
2022-12-04T14:49:58.084Z,98
2022-12-04T14:51:04.733Z,99
2022-12-04T14:52:11.816Z,99
2022-12-04T14:53:18.888Z,99
2022-12-04T14:54:26.046Z,99
2022-12-04T14:55:33.157Z,99
2022-12-04T14:56:39.720Z,99
2022-12-04T14:57:46.953Z,99
2022-12-04T14:58:53.952Z,99
2022-12-04T15:00:01.022Z,99
2022-12-04T15:01:08.096Z,99
2022-12-04T15:02:14.816Z,99
2022-12-04T15:03:21.953Z,98
2022-12-04T15:04:28.983Z,99
2022-12-04T15:06:43.126Z,99
2022-12-04T15:07:49.961Z,99
2022-12-04T15:08:56.823Z,99
2022-12-04T15:10:03.932Z,98
2022-12-04T15:11:11.056Z,99
2022-12-04T15:12:17.743Z,99
2022-12-04T15:13:24.714Z,98
2022-12-04T15:14:31.879Z,99
2022-12-04T15:15:38.967Z,99
2022-12-04T15:16:46.040Z,98
2022-12-04T15:17:52.637Z,99
2022-12-04T15:18:59.690Z,98
2022-12-04T15:20:06.810Z,98
2022-12-04T15:21:13.960Z,99
2022-12-04T15:22:21.117Z,99
2022-12-04T15:23:27.609Z,99
2022-12-04T15:24:35.349Z,98
2022-12-04T15:25:43.142Z,98
2022-12-04T15:26:48.911Z,98
2022-12-04T15:27:56.037Z,98
2022-12-04T15:29:02.636Z,99
2022-12-04T15:30:09.722Z,97
2022-12-04T15:31:16.935Z,97
2022-12-04T15:32:24.053Z,97
2022-12-04T15:33:31.053Z,94
2022-12-04T15:34:37.631Z,97
2022-12-04T15:35:44.758Z,97
2022-12-04T15:36:51.867Z,94
2022-12-04T15:37:58.515Z,94
2022-12-04T15:39:06.095Z,94
2022-12-04T15:40:12.655Z,94
2022-12-04T15:41:22.708Z,94
2022-12-04T15:42:26.868Z,94
2022-12-04T15:43:33.988Z,93
2022-12-04T15:44:41.108Z,99
2022-12-04T15:45:47.648Z,99
2022-12-04T15:46:54.906Z,97
2022-12-04T15:48:01.968Z,99
2022-12-04T15:49:08.933Z,99
2022-12-04T15:50:16.066Z,99
2022-12-04T15:51:22.698Z,99
2022-12-04T15:52:29.748Z,99
2022-12-04T15:53:36.933Z,99
2022-12-04T15:54:44.008Z,99
2022-12-04T15:55:51.121Z,99
2022-12-04T15:56:57.641Z,99
2022-12-04T15:58:04.867Z,99
2022-12-04T15:59:11.915Z,99
2022-12-04T16:00:18.987Z,99
2022-12-04T16:01:26.145Z,99
2022-12-04T16:02:32.828Z,99
2022-12-04T16:03:39.902Z,99
2022-12-04T16:04:46.940Z,99
2022-12-04T16:05:54.069Z,99
2022-12-04T16:07:01.096Z,99
2022-12-04T16:08:07.706Z,99
2022-12-04T16:10:21.919Z,99
2022-12-04T16:11:28.991Z,99
2022-12-04T16:12:36.201Z,99
2022-12-04T16:14:49.786Z,99
2022-12-04T16:15:57.096Z,99
2022-12-04T16:17:06.308Z,99
2022-12-04T16:18:11.149Z,99
2022-12-04T16:20:24.809Z,99
2022-12-04T16:21:31.963Z,99
2022-12-04T16:22:39.081Z,99
2022-12-04T16:23:46.159Z,99
2022-12-04T16:24:52.705Z,99
2022-12-04T16:25:59.820Z,99
2022-12-04T16:27:06.933Z,99
2022-12-04T16:28:14.980Z,99
2022-12-04T16:29:21.140Z,99
2022-12-04T16:30:27.708Z,99
2022-12-04T16:31:34.914Z,99
2022-12-04T16:32:41.939Z,99
2022-12-04T16:33:48.994Z,99
2022-12-04T16:34:56.338Z,99
2022-12-04T16:36:02.724Z,99
2022-12-04T16:37:09.829Z,99
2022-12-04T16:38:17.043Z,99
2022-12-04T16:39:24.078Z,99
2022-12-04T16:40:31.142Z,99
2022-12-04T16:41:37.732Z,99
2022-12-04T16:42:44.919Z,99
2022-12-04T16:43:51.957Z,99
2022-12-04T16:44:59.374Z,99
2022-12-04T16:46:05.661Z,99
2022-12-04T16:47:12.767Z,99
2022-12-04T16:48:19.820Z,99
2022-12-04T16:49:26.936Z,99
2022-12-04T16:50:34.086Z,99
2022-12-04T16:51:41.177Z,99